Time;durP1;ratioP1;P1;durP2;ratioP2;P2;SDS_P1;SDS_P2;PMS_P1;PMS_P2;Temp;Humidity;BMP_temperature;BMP_pressure;BME280_temperature;BME280_humidity;BME280_pressure;Samples;Min_cycle;Max_cycle;Signal;HPM_P1;HPM_P2
2024/03/26 00:01:22;;;;;;;8.77;2.77;;;4.00;99.90;;;;;;4825503;29;20225;-90
2024/03/26 00:03:48;;;;;;;8.63;3.17;;;4.00;99.90;;;;;;4810615;29;20190;-91
2024/03/26 00:06:13;;;;;;;5.67;2.50;;;4.10;99.90;;;;;;4810199;29;20201;-91
2024/03/26 00:08:39;;;;;;;7.73;2.90;;;4.10;99.90;;;;;;4810237;29;20194;-91
2024/03/26 00:11:07;;;;;;;8.27;2.83;;;4.10;99.90;;;;;;4824502;29;20213;-91
2024/03/26 00:13:32;;;;;;;7.77;2.90;;;4.10;99.90;;;;;;4810398;29;20223;-91
2024/03/26 00:15:58;;;;;;;9.03;3.13;;;4.10;99.90;;;;;;4826514;29;20182;-90
2024/03/26 00:18:24;;;;;;;8.23;2.77;;;4.00;99.90;;;;;;4825394;29;20202;-91
2024/03/26 00:20:50;;;;;;;10.43;3.57;;;4.00;99.90;;;;;;4826366;29;20304;-90
2024/03/26 00:23:16;;;;;;;8.83;3.20;;;4.00;99.90;;;;;;4797341;29;20627;-91
2024/03/26 00:25:42;;;;;;;13.00;3.00;;;4.10;99.90;;;;;;4806661;29;20531;-90
2024/03/26 00:28:08;;;;;;;9.30;3.30;;;4.00;99.90;;;;;;4806920;29;20191;-90
2024/03/26 00:30:33;;;;;;;9.27;3.23;;;4.10;99.90;;;;;;4808224;29;20190;-90
2024/03/26 00:33:04;;;;;;;7.40;2.70;;;4.00;99.90;;;;;;4791816;29;20331;-90
2024/03/26 00:35:34;;;;;;;10.73;3.13;;;4.00;99.90;;;;;;4791719;29;20194;-90
2024/03/26 00:38:00;;;;;;;6.40;3.27;;;4.00;99.90;;;;;;4808062;29;20256;-89
2024/03/26 00:40:26;;;;;;;8.87;3.63;;;4.00;99.90;;;;;;4807698;29;20654;-91
2024/03/26 00:43:03;;;;;;;8.70;3.57;;;3.90;99.90;;;;;;4806828;29;20187;-90
2024/03/26 00:45:29;;;;;;;7.77;3.20;;;3.90;99.90;;;;;;4791979;29;20214;-89
2024/03/26 00:47:55;;;;;;;14.83;3.67;;;3.90;99.90;;;;;;4807972;29;20218;-92
2024/03/26 00:50:21;;;;;;;13.73;3.63;;;3.90;99.90;;;;;;4807199;29;20225;-91
2024/03/26 00:52:57;;;;;;;11.50;3.00;;;3.90;99.90;;;;;;4817094;29;20239;-91
2024/03/26 00:55:22;;;;;;;8.93;3.53;;;3.80;99.90;;;;;;4809812;29;20614;-90
2024/03/26 00:57:50;;;;;;;10.57;3.93;;;3.80;99.90;;;;;;4824758;29;20234;-90
2024/03/26 01:00:16;;;;;;;8.47;3.43;;;3.80;99.90;;;;;;4825942;29;20238;-90
2024/03/26 01:02:47;;;;;;;8.17;3.40;;;3.70;99.90;;;;;;4826107;29;20222;-91
2024/03/26 01:05:13;;;;;;;8.37;3.40;;;3.80;99.90;;;;;;4809732;29;20214;-91
2024/03/26 01:07:39;;;;;;;16.20;4.17;;;3.70;99.90;;;;;;4824774;29;20225;-91
2024/03/26 01:10:05;;;;;;;12.53;3.93;;;3.70;99.90;;;;;;4825811;29;20611;-91
2024/03/26 01:12:32;;;;;;;11.40;3.97;;;3.60;99.90;;;;;;4809497;29;20260;-90
2024/03/26 01:14:59;;;;;;;10.37;3.63;;;3.60;99.90;;;;;;4826324;29;20202;-91
2024/03/26 01:17:25;;;;;;;13.40;4.30;;;3.60;99.90;;;;;;4809567;29;20277;-90
2024/03/26 01:19:51;;;;;;;7.97;3.13;;;3.60;99.90;;;;;;4809530;29;20222;-91
2024/03/26 01:22:24;;;;;;;8.33;3.70;;;3.50;99.90;;;;;;4822042;29;20268;-91
2024/03/26 01:24:50;;;;;;;12.07;3.53;;;3.50;99.90;;;;;;4795416;29;20183;-91
2024/03/26 01:27:15;;;;;;;7.93;3.17;;;3.50;99.90;;;;;;4794415;29;20526;-91
2024/03/26 01:29:42;;;;;;;9.83;3.40;;;3.50;99.90;;;;;;4794693;29;20187;-90
2024/03/26 01:32:09;;;;;;;12.07;3.60;;;3.50;99.90;;;;;;4811082;29;20189;-92
2024/03/26 01:34:35;;;;;;;10.17;3.17;;;3.50;99.90;;;;;;4794712;29;20195;-91
2024/03/26 01:37:00;;;;;;;11.77;3.80;;;3.50;99.90;;;;;;4794630;29;20190;-91
2024/03/26 01:39:26;;;;;;;8.00;3.77;;;3.50;99.90;;;;;;4794520;29;20653;-91
2024/03/26 01:41:52;;;;;;;9.77;3.47;;;3.40;99.90;;;;;;4810623;29;20215;-91
2024/03/26 01:44:17;;;;;;;14.03;3.57;;;3.40;99.90;;;;;;4794325;29;20518;-91
2024/03/26 01:46:43;;;;;;;10.23;3.57;;;3.40;99.90;;;;;;4794399;29;20182;-92
2024/03/26 01:49:10;;;;;;;9.67;3.33;;;3.50;99.90;;;;;;4794168;29;20187;-92
2024/03/26 01:51:40;;;;;;;8.53;3.47;;;3.40;99.90;;;;;;4794511;29;20304;-91
2024/03/26 01:54:09;;;;;;;7.33;3.57;;;3.50;99.90;;;;;;4812523;29;20194;-91
2024/03/26 01:56:36;;;;;;;8.57;3.40;;;3.40;99.90;;;;;;4811862;29;20697;-92
2024/03/26 01:59:01;;;;;;;8.53;3.50;;;3.50;99.90;;;;;;4812501;29;20626;-91
2024/03/26 02:01:27;;;;;;;10.03;3.53;;;3.40;99.90;;;;;;4811931;29;20237;-91
2024/03/26 02:03:58;;;;;;;8.43;3.40;;;3.40;99.90;;;;;;4812077;29;20209;-90
2024/03/26 02:06:24;;;;;;;8.60;3.40;;;3.40;99.90;;;;;;4828331;29;20180;-90
2024/03/26 02:08:51;;;;;;;14.00;3.93;;;3.30;99.90;;;;;;4827060;29;20190;-90
2024/03/26 02:11:17;;;;;;;7.53;3.30;;;3.30;99.90;;;;;;4811876;29;20185;-90
2024/03/26 02:13:50;;;;;;;7.97;3.23;;;3.30;99.90;;;;;;4828087;29;20190;-91
2024/03/26 02:16:16;;;;;;;6.93;3.03;;;3.30;99.90;;;;;;4827998;29;20258;-90
2024/03/26 02:18:42;;;;;;;7.30;3.33;;;3.30;99.90;;;;;;4827101;29;20687;-90
2024/03/26 02:21:07;;;;;;;8.23;3.40;;;3.30;99.90;;;;;;4827872;29;20205;-89
2024/03/26 02:23:43;;;;;;;9.30;4.00;;;3.30;99.90;;;;;;4820792;29;20226;-91
2024/03/26 02:26:16;;;;;;;8.47;3.63;;;3.30;99.90;;;;;;4811816;29;20273;-89
2024/03/26 02:28:42;;;;;;;8.17;3.40;;;3.30;99.90;;;;;;4828080;29;20265;-90
2024/03/26 02:31:07;;;;;;;10.47;3.40;;;3.30;99.90;;;;;;4827916;29;20249;-90
2024/03/26 02:33:41;;;;;;;10.93;3.23;;;3.20;99.90;;;;;;4826116;29;20200;-90
2024/03/26 02:36:07;;;;;;;8.13;3.07;;;3.20;99.90;;;;;;4827457;29;20600;-90
2024/03/26 02:38:33;;;;;;;5.10;2.77;;;3.20;99.90;;;;;;4811498;29;20209;-90
2024/03/26 02:40:59;;;;;;;5.13;2.73;;;3.20;99.90;;;;;;4811225;29;20228;-90
2024/03/26 02:43:24;;;;;;;7.20;3.20;;;3.20;99.90;;;;;;4826567;29;20193;-90
2024/03/26 02:45:50;;;;;;;15.70;3.10;;;3.20;99.90;;;;;;4811346;29;20236;-90
2024/03/26 02:48:16;;;;;;;8.27;3.00;;;3.20;99.90;;;;;;4827621;29;20182;-89
2024/03/26 02:50:42;;;;;;;9.53;3.13;;;3.20;99.90;;;;;;4811375;29;20196;-88
2024/03/26 02:53:16;;;;;;;9.20;3.30;;;3.20;99.90;;;;;;4827658;29;20180;-89
2024/03/26 02:55:41;;;;;;;9.40;3.90;;;3.20;99.90;;;;;;4826349;29;20218;-88
2024/03/26 02:58:07;;;;;;;7.27;3.03;;;3.20;99.90;;;;;;4826223;29;20322;-88
2024/03/26 03:00:33;;;;;;;6.47;2.90;;;3.20;99.90;;;;;;4826310;29;20658;-89
2024/03/26 03:03:01;;;;;;;8.73;3.37;;;3.20;99.90;;;;;;4826456;29;20219;-89
2024/03/26 03:05:27;;;;;;;8.10;2.60;;;3.20;99.90;;;;;;4826461;29;20182;-88
2024/03/26 03:07:53;;;;;;;6.97;3.20;;;3.20;99.90;;;;;;4826299;29;20192;-90
2024/03/26 03:10:19;;;;;;;6.37;3.10;;;3.10;99.90;;;;;;4827302;29;20212;-90
2024/03/26 03:12:46;;;;;;;7.73;2.70;;;3.20;99.90;;;;;;4827119;29;20213;-89
2024/03/26 03:15:13;;;;;;;9.50;3.00;;;3.10;99.90;;;;;;4826314;29;20254;-91
2024/03/26 03:17:38;;;;;;;7.30;2.90;;;3.20;99.90;;;;;;4826275;29;20186;-90
2024/03/26 03:20:05;;;;;;;10.47;3.83;;;3.10;99.90;;;;;;4826204;29;20592;-89
2024/03/26 03:22:31;;;;;;;9.23;2.90;;;3.10;99.90;;;;;;4827169;29;20623;-91
2024/03/26 03:27:33;;;;;;;5.47;2.80;;;3.00;99.90;;;;;;5030436;24;20248;-81
2024/03/26 03:29:59;;;;;;;6.97;2.30;;;3.00;99.90;;;;;;4864330;29;20190;-80
2024/03/26 03:32:25;;;;;;;5.83;2.87;;;3.00;99.90;;;;;;4880991;29;20192;-81
2024/03/26 03:34:52;;;;;;;6.20;2.83;;;3.00;99.90;;;;;;4881003;29;20187;-79
2024/03/26 03:37:18;;;;;;;6.83;2.70;;;3.00;99.90;;;;;;4881027;29;20231;-80
2024/03/26 03:39:44;;;;;;;9.43;2.37;;;2.90;99.90;;;;;;4880898;29;20203;-81
2024/03/26 03:42:10;;;;;;;6.30;2.87;;;2.90;99.90;;;;;;4863955;29;20615;-81
2024/03/26 03:44:36;;;;;;;8.57;3.17;;;2.90;99.90;;;;;;4863224;29;20192;-81
2024/03/26 03:47:03;;;;;;;8.60;2.90;;;2.80;99.90;;;;;;4880847;29;20592;-81
2024/03/26 03:49:29;;;;;;;9.80;2.90;;;2.70;99.90;;;;;;4880759;29;20168;-81
2024/03/26 03:51:56;;;;;;;7.40;2.60;;;2.70;99.90;;;;;;4880954;29;20180;-82
2024/03/26 03:54:22;;;;;;;8.20;3.00;;;2.70;99.90;;;;;;4880832;29;20240;-81
2024/03/26 03:56:48;;;;;;;13.60;3.13;;;2.60;99.90;;;;;;4880457;29;20615;-81
2024/03/26 03:59:14;;;;;;;9.47;3.43;;;2.60;99.90;;;;;;4880826;29;20176;-82
2024/03/26 04:01:40;;;;;;;6.07;2.90;;;2.50;99.90;;;;;;4880636;29;20207;-80
2024/03/26 04:04:06;;;;;;;5.43;2.40;;;2.50;99.90;;;;;;4880540;29;20183;-81
2024/03/26 04:06:33;;;;;;;8.10;3.30;;;2.50;99.90;;;;;;4880579;29;20183;-80
2024/03/26 04:08:59;;;;;;;7.83;2.97;;;2.50;99.90;;;;;;4880508;29;20176;-80
2024/03/26 04:11:25;;;;;;;5.43;3.07;;;2.50;99.90;;;;;;4880599;29;20207;-84
2024/03/26 04:13:50;;;;;;;6.57;2.90;;;2.60;99.90;;;;;;4880639;29;20188;-82
2024/03/26 04:16:16;;;;;;;8.97;3.27;;;2.60;99.90;;;;;;4880694;29;20243;-83
2024/03/26 04:18:42;;;;;;;6.97;3.27;;;2.50;99.90;;;;;;4880826;29;20184;-83
2024/03/26 04:21:08;;;;;;;7.13;3.47;;;2.60;99.90;;;;;;4863919;29;20291;-81
2024/03/26 04:23:33;;;;;;;9.57;3.37;;;2.60;99.90;;;;;;4880694;29;20232;-81
2024/03/26 04:25:59;;;;;;;7.87;3.30;;;2.60;99.90;;;;;;4880116;29;20235;-81
2024/03/26 04:28:27;;;;;;;9.33;4.00;;;2.60;99.90;;;;;;4880690;29;20211;-82
2024/03/26 04:30:56;;;;;;;8.27;4.03;;;2.60;99.90;;;;;;4880665;29;20255;-82
2024/03/26 04:33:22;;;;;;;10.10;3.67;;;2.60;99.90;;;;;;4879541;29;20214;-81
2024/03/26 04:35:48;;;;;;;9.73;3.67;;;2.60;99.90;;;;;;4864160;29;20216;-82
2024/03/26 04:38:14;;;;;;;7.90;3.70;;;2.60;99.90;;;;;;4880506;29;20183;-81
2024/03/26 04:40:40;;;;;;;6.33;3.53;;;2.60;99.90;;;;;;4880429;29;20219;-81
2024/03/26 04:43:09;;;;;;;12.43;4.23;;;2.50;99.90;;;;;;4880445;29;20180;-82
2024/03/26 04:45:35;;;;;;;8.10;4.37;;;2.60;99.90;;;;;;4880317;29;20188;-82
2024/03/26 04:48:01;;;;;;;9.53;4.17;;;2.50;99.90;;;;;;4862694;29;20205;-81
2024/03/26 04:50:28;;;;;;;6.03;3.60;;;2.50;99.90;;;;;;4880559;29;20188;-81
2024/03/26 04:52:54;;;;;;;8.13;4.07;;;2.50;99.90;;;;;;4863702;29;20192;-81
2024/03/26 04:55:20;;;;;;;9.53;4.13;;;2.50;99.90;;;;;;4880456;29;20188;-82
2024/03/26 04:57:46;;;;;;;11.50;4.83;;;2.50;99.90;;;;;;4884096;29;20179;-82
2024/03/26 05:00:13;;;;;;;9.83;4.93;;;2.50;99.90;;;;;;4883845;29;20262;-82
2024/03/26 05:02:40;;;;;;;6.73;4.20;;;2.50;99.90;;;;;;4866781;29;20208;-82
2024/03/26 05:05:07;;;;;;;8.13;4.43;;;2.60;99.90;;;;;;4883944;29;20180;-81
2024/03/26 05:07:33;;;;;;;10.50;4.60;;;2.60;99.90;;;;;;4867102;29;20588;-82
2024/03/26 05:10:00;;;;;;;8.47;5.10;;;2.60;99.90;;;;;;4867116;29;20208;-82
2024/03/26 05:12:26;;;;;;;10.80;4.30;;;2.60;99.90;;;;;;4883810;29;20619;-82
2024/03/26 05:14:52;;;;;;;10.20;4.30;;;2.60;99.90;;;;;;4883773;29;20180;-82
2024/03/26 05:17:18;;;;;;;8.47;4.47;;;2.60;99.90;;;;;;4883261;29;20250;-81
2024/03/26 05:19:44;;;;;;;7.10;4.03;;;2.60;99.90;;;;;;4883461;29;20605;-83
2024/03/26 05:22:10;;;;;;;9.00;4.37;;;2.60;99.90;;;;;;4883498;29;20203;-82
2024/03/26 05:24:38;;;;;;;9.57;4.50;;;2.70;99.90;;;;;;4883501;29;20578;-82
2024/03/26 05:27:05;;;;;;;7.67;4.53;;;2.70;99.90;;;;;;4883266;29;20655;-81
2024/03/26 05:29:31;;;;;;;9.60;5.10;;;2.70;99.90;;;;;;4866614;29;20278;-82
2024/03/26 05:31:57;;;;;;;12.53;5.00;;;2.70;99.90;;;;;;4883334;29;20200;-82
2024/03/26 05:34:23;;;;;;;12.17;5.67;;;2.70;99.90;;;;;;4866354;29;20282;-83
2024/03/26 05:36:49;;;;;;;11.43;5.50;;;2.70;99.90;;;;;;4866450;29;20270;-82
2024/03/26 05:39:15;;;;;;;8.17;5.80;;;2.70;99.90;;;;;;4883030;29;20180;-82
2024/03/26 05:41:41;;;;;;;8.90;5.40;;;2.80;99.90;;;;;;4882900;29;20207;-82
2024/03/26 05:44:07;;;;;;;11.93;6.20;;;2.80;99.90;;;;;;4883051;29;20195;-82
2024/03/26 05:46:34;;;;;;;15.20;6.10;;;2.80;99.90;;;;;;4882979;29;20184;-81
2024/03/26 05:49:00;;;;;;;9.10;5.10;;;2.80;99.90;;;;;;4882681;29;20179;-83
2024/03/26 05:51:26;;;;;;;8.27;4.80;;;2.90;99.90;;;;;;4882819;29;20620;-82
2024/03/26 05:53:52;;;;;;;8.57;5.00;;;2.90;99.90;;;;;;4866249;29;20192;-80
2024/03/26 05:56:18;;;;;;;11.30;5.23;;;2.90;99.90;;;;;;4882814;29;20267;-81
2024/03/26 05:58:44;;;;;;;11.77;4.83;;;3.00;99.90;;;;;;4882708;29;20304;-82
2024/03/26 06:01:10;;;;;;;9.07;5.70;;;3.00;99.90;;;;;;4882213;29;20219;-81
2024/03/26 06:03:37;;;;;;;9.47;4.83;;;3.00;99.90;;;;;;4864925;29;20188;-81
2024/03/26 06:06:03;;;;;;;8.27;4.97;;;3.00;99.90;;;;;;4865978;29;20278;-81
2024/03/26 06:08:30;;;;;;;10.33;5.13;;;3.10;99.90;;;;;;4881649;29;20180;-82
2024/03/26 06:10:56;;;;;;;12.57;5.47;;;3.10;99.90;;;;;;4882661;29;20180;-81
2024/03/26 06:13:22;;;;;;;8.33;5.40;;;3.10;99.90;;;;;;4865797;29;20508;-81
2024/03/26 06:15:48;;;;;;;9.77;4.97;;;3.10;99.90;;;;;;4865759;29;20275;-82
2024/03/26 06:18:14;;;;;;;12.50;5.20;;;3.10;99.90;;;;;;4865393;29;20270;-81
2024/03/26 06:20:40;;;;;;;8.10;5.53;;;3.00;99.90;;;;;;4865437;29;20216;-81
2024/03/26 06:23:06;;;;;;;9.37;6.00;;;3.00;99.90;;;;;;4882302;29;20172;-81
2024/03/26 06:25:32;;;;;;;10.73;5.73;;;3.10;99.90;;;;;;4882337;29;20275;-81
2024/03/26 06:27:57;;;;;;;8.83;5.60;;;3.10;99.90;;;;;;4881657;29;20196;-81
2024/03/26 06:30:23;;;;;;;8.33;5.27;;;3.10;99.90;;;;;;4881815;29;20274;-82
2024/03/26 06:32:50;;;;;;;9.57;5.53;;;3.20;99.90;;;;;;4882164;29;20172;-80
2024/03/26 06:35:16;;;;;;;11.87;5.77;;;3.30;99.90;;;;;;4882080;29;20180;-80
2024/03/26 06:37:42;;;;;;;8.90;5.63;;;3.30;99.90;;;;;;4882141;29;20548;-81
2024/03/26 06:40:08;;;;;;;10.27;5.50;;;3.30;99.90;;;;;;4881932;29;20231;-81
2024/03/26 06:42:34;;;;;;;10.50;5.90;;;3.40;99.90;;;;;;4881907;29;20519;-81
2024/03/26 06:45:00;;;;;;;10.50;5.93;;;3.40;99.90;;;;;;4881808;29;20221;-81
2024/03/26 06:47:26;;;;;;;8.53;5.43;;;3.50;99.90;;;;;;4881856;29;20203;-81
2024/03/26 06:49:51;;;;;;;9.23;5.53;;;3.60;99.90;;;;;;4865306;29;20188;-80
2024/03/26 06:52:17;;;;;;;11.00;5.40;;;3.70;99.90;;;;;;4881805;29;20180;-81
2024/03/26 06:54:44;;;;;;;11.37;5.80;;;3.90;99.90;;;;;;4881734;29;20180;-80
2024/03/26 06:57:09;;;;;;;9.23;6.03;;;4.00;99.90;;;;;;4881713;29;20334;-81
2024/03/26 06:59:36;;;;;;;11.13;5.87;;;4.20;99.90;;;;;;4881142;29;20618;-81
2024/03/26 07:02:03;;;;;;;11.03;5.57;;;4.40;99.90;;;;;;4881619;29;20185;-83
2024/03/26 07:04:30;;;;;;;10.23;5.87;;;4.50;99.90;;;;;;4864101;29;20865;-81
2024/03/26 07:06:56;;;;;;;9.47;5.93;;;4.70;99.90;;;;;;4881503;29;20286;-83
2024/03/26 07:09:22;;;;;;;9.03;5.73;;;4.80;99.90;;;;;;4881323;29;20190;-81
2024/03/26 07:11:48;;;;;;;10.73;5.60;;;4.90;99.90;;;;;;4881538;29;20622;-82
2024/03/26 07:14:17;;;;;;;10.67;6.40;;;5.10;99.90;;;;;;4864546;29;20336;-83
2024/03/26 07:16:43;;;;;;;12.83;5.90;;;5.20;99.90;;;;;;4881430;29;20271;-81
2024/03/26 07:19:09;;;;;;;11.77;5.60;;;5.30;99.90;;;;;;4881122;29;20267;-83
2024/03/26 07:21:37;;;;;;;10.60;5.93;;;5.30;99.90;;;;;;4864718;29;20306;-81
2024/03/26 07:24:03;;;;;;;8.80;5.73;;;5.40;99.90;;;;;;4881166;29;20180;-81
2024/03/26 07:26:29;;;;;;;12.83;6.20;;;5.40;99.90;;;;;;4862082;29;20243;-81
2024/03/26 07:28:56;;;;;;;8.83;5.53;;;5.40;99.90;;;;;;4840997;29;20189;-81
2024/03/26 07:31:22;;;;;;;10.10;5.30;;;5.50;99.90;;;;;;4842298;29;20242;-86
2024/03/26 07:33:48;;;;;;;10.43;5.13;;;5.60;99.90;;;;;;4827357;29;20576;-83
2024/03/26 07:36:14;;;;;;;8.40;4.70;;;5.80;99.90;;;;;;4842344;29;20188;-81
2024/03/26 07:38:40;;;;;;;8.67;5.00;;;5.90;99.90;;;;;;4827865;29;20196;-82
2024/03/26 07:41:07;;;;;;;8.57;4.27;;;6.10;99.90;;;;;;4845357;29;20225;-81
2024/03/26 07:43:33;;;;;;;11.40;4.93;;;6.20;99.90;;;;;;4827504;29;20300;-81
2024/03/26 07:45:59;;;;;;;9.03;4.60;;;6.30;99.90;;;;;;4842089;29;20192;-82
2024/03/26 07:48:25;;;;;;;6.87;4.00;;;6.40;99.90;;;;;;4845678;29;20208;-83
2024/03/26 07:50:51;;;;;;;7.63;4.20;;;6.60;99.90;;;;;;4844461;29;20228;-81
2024/03/26 07:53:17;;;;;;;5.80;3.93;;;6.60;99.90;;;;;;4842232;29;20284;-81
2024/03/26 07:55:42;;;;;;;6.10;3.77;;;6.70;99.90;;;;;;4826011;29;20205;-81
2024/03/26 07:58:08;;;;;;;9.07;4.47;;;6.80;99.90;;;;;;4839775;29;20196;-83
2024/03/26 08:00:34;;;;;;;8.03;4.30;;;6.90;99.90;;;;;;4826817;29;20282;-81
2024/03/26 08:03:00;;;;;;;5.50;3.90;;;6.90;99.90;;;;;;4844793;29;20254;-82
2024/03/26 08:05:26;;;;;;;4.40;3.60;;;6.90;99.90;;;;;;4850194;29;20204;-85
2024/03/26 08:07:53;;;;;;;6.17;3.40;;;7.00;99.90;;;;;;4852399;29;20193;-83
2024/03/26 08:10:19;;;;;;;6.27;3.93;;;7.00;99.90;;;;;;4829371;29;20197;-83
2024/03/26 08:12:45;;;;;;;4.77;3.60;;;7.10;99.90;;;;;;4843075;29;20630;-82
2024/03/26 08:15:12;;;;;;;6.93;3.80;;;7.10;99.90;;;;;;4847706;29;20188;-82
2024/03/26 08:17:38;;;;;;;5.63;3.23;;;7.20;99.90;;;;;;4828627;29;20718;-82
2024/03/26 08:20:05;;;;;;;7.57;3.67;;;7.20;99.90;;;;;;4839947;29;20262;-80
2024/03/26 08:22:32;;;;;;;5.97;3.57;;;7.30;99.90;;;;;;4841982;29;20279;-82
2024/03/26 08:24:58;;;;;;;5.60;3.33;;;7.40;99.90;;;;;;4829472;29;20196;-81
2024/03/26 08:27:24;;;;;;;6.27;3.70;;;7.50;99.90;;;;;;4860723;29;20578;-82
2024/03/26 08:29:51;;;;;;;6.60;3.20;;;7.60;99.90;;;;;;4860853;29;20188;-81
2024/03/26 08:32:17;;;;;;;6.67;3.60;;;7.60;99.90;;;;;;4851427;29;20204;-84
2024/03/26 08:34:42;;;;;;;3.63;3.10;;;7.60;99.90;;;;;;4854384;29;20260;-81
2024/03/26 08:37:08;;;;;;;3.50;2.90;;;7.60;99.90;;;;;;4858005;29;20271;-82
2024/03/26 08:39:34;;;;;;;4.23;2.93;;;7.60;99.90;;;;;;4866328;29;20192;-81
2024/03/26 08:42:00;;;;;;;4.67;3.00;;;7.50;99.90;;;;;;4852623;29;20211;-81
2024/03/26 08:44:26;;;;;;;5.60;3.37;;;7.60;99.90;;;;;;4856413;29;20205;-85
2024/03/26 08:46:52;;;;;;;6.43;3.80;;;7.70;99.90;;;;;;4852770;29;20546;-83
2024/03/26 08:49:18;;;;;;;4.83;3.50;;;7.80;99.90;;;;;;4867089;29;20240;-81
2024/03/26 08:51:44;;;;;;;6.20;3.60;;;7.90;99.90;;;;;;4866068;29;20192;-81
2024/03/26 08:54:09;;;;;;;7.33;3.80;;;8.10;99.90;;;;;;4857167;29;20696;-82
2024/03/26 08:56:35;;;;;;;5.27;3.30;;;8.20;99.90;;;;;;4859715;29;20735;-82
2024/03/26 08:59:01;;;;;;;4.13;3.17;;;8.40;99.90;;;;;;4841339;29;20197;-80
2024/03/26 09:01:27;;;;;;;4.63;3.07;;;8.50;99.90;;;;;;4863400;29;20280;-81
2024/03/26 09:03:52;;;;;;;5.47;3.03;;;8.50;99.90;;;;;;4866714;29;20588;-82
2024/03/26 09:06:18;;;;;;;6.97;3.10;;;8.50;99.90;;;;;;4866665;29;20215;-81
2024/03/26 09:08:44;;;;;;;6.37;2.93;;;8.50;99.90;;;;;;4863169;29;20188;-81
2024/03/26 09:11:10;;;;;;;4.90;3.40;;;8.50;99.90;;;;;;4846667;29;20205;-81
2024/03/26 09:13:39;;;;;;;4.55;2.80;;;8.60;99.90;;;;;;4862349;29;20304;-81
2024/03/26 09:16:07;;;;;;;3.53;2.78;;;8.50;99.90;;;;;;4861624;29;20184;-85
2024/03/26 09:18:33;;;;;;;4.10;2.90;;;8.50;99.90;;;;;;4864801;29;20605;-85
2024/03/26 09:20:59;;;;;;;6.18;3.20;;;8.50;99.90;;;;;;4863603;29;20212;-83
2024/03/26 09:23:25;;;;;;;4.93;2.83;;;8.50;99.90;;;;;;4864197;29;20169;-83
2024/03/26 09:25:50;;;;;;;5.17;3.27;;;8.50;99.90;;;;;;4863443;29;20192;-85
2024/03/26 09:28:16;;;;;;;6.50;3.17;;;8.40;99.90;;;;;;4862316;29;20633;-82
2024/03/26 09:30:42;;;;;;;5.67;2.60;;;8.40;99.90;;;;;;4864493;29;20184;-84
2024/03/26 09:33:08;;;;;;;7.23;3.10;;;8.40;99.90;;;;;;4864629;29;20177;-82
2024/03/26 09:35:34;;;;;;;5.17;3.07;;;8.40;99.90;;;;;;4848035;29;20173;-83
2024/03/26 09:38:00;;;;;;;3.97;3.03;;;8.40;99.90;;;;;;4848003;29;20625;-83
2024/03/26 09:40:26;;;;;;;3.67;2.83;;;8.50;99.90;;;;;;4864438;29;20212;-83
2024/03/26 09:42:54;;;;;;;5.70;3.17;;;8.70;99.90;;;;;;4847771;29;20245;-81
2024/03/26 09:45:20;;;;;;;4.90;2.93;;;8.80;99.90;;;;;;4847494;29;20612;-83
2024/03/26 09:47:48;;;;;;;5.38;2.97;;;8.90;99.90;;;;;;4847935;29;20627;-85
2024/03/26 09:50:17;;;;;;;5.90;2.93;;;9.00;99.90;;;;;;4864247;29;20212;-86
2024/03/26 09:52:48;;;;;;;4.67;3.20;;;9.10;99.90;;;;;;4864102;29;20203;-82
2024/03/26 09:55:16;;;;;;;3.53;2.85;;;9.20;99.90;;;;;;4847640;29;20180;-85
2024/03/26 09:57:44;;;;;;;6.25;2.95;;;9.30;99.90;;;;;;4847542;29;20275;-84
2024/03/26 10:00:11;;;;;;;6.53;3.00;;;9.40;99.90;;;;;;4847169;29;20216;-84
2024/03/26 10:02:37;;;;;;;4.68;3.13;;;9.40;99.90;;;;;;4847392;29;20192;-83
2024/03/26 10:05:03;;;;;;;3.95;2.92;;;9.20;99.90;;;;;;4863958;29;20588;-83
2024/03/26 10:07:30;;;;;;;3.95;2.88;;;9.20;99.90;;;;;;4863964;29;20181;-83
2024/03/26 10:09:55;;;;;;;5.30;3.17;;;9.20;99.90;;;;;;4847302;29;20230;-83
2024/03/26 10:12:22;;;;;;;3.40;2.95;;;9.20;99.90;;;;;;4847248;29;20193;-82
2024/03/26 10:14:48;;;;;;;6.22;3.65;;;9.20;99.90;;;;;;4843737;29;20275;-83
2024/03/26 10:17:14;;;;;;;4.37;3.43;;;9.20;99.90;;;;;;4847038;29;20271;-84
2024/03/26 10:19:39;;;;;;;4.35;3.22;;;9.10;99.90;;;;;;4862708;29;20192;-83
2024/03/26 10:22:05;;;;;;;5.68;3.30;;;9.10;99.90;;;;;;4863681;29;20187;-83
2024/03/26 10:24:31;;;;;;;4.30;3.20;;;9.20;99.90;;;;;;4846196;29;20280;-82
2024/03/26 10:26:57;;;;;;;5.80;3.20;;;9.20;99.90;;;;;;4863474;29;20236;-83
2024/03/26 10:29:22;;;;;;;5.75;3.33;;;9.20;99.90;;;;;;4846495;29;20213;-83
2024/03/26 10:31:49;;;;;;;4.60;3.33;;;9.20;99.90;;;;;;4846958;29;20298;-84
2024/03/26 10:34:24;;;;;;;5.10;3.47;;;9.40;99.90;;;;;;4863579;29;20512;-82
2024/03/26 10:36:54;;;;;;;4.97;3.35;;;9.50;99.90;;;;;;4863462;29;20176;-83
2024/03/26 10:39:21;;;;;;;6.85;3.72;;;9.60;99.90;;;;;;4846812;29;20245;-82
2024/03/26 10:41:52;;;;;;;8.70;3.40;;;9.60;99.90;;;;;;4846709;29;20220;-84
2024/03/26 10:44:18;;;;;;;4.78;3.75;;;9.60;99.90;;;;;;4863204;29;20248;-84
2024/03/26 10:46:45;;;;;;;5.25;3.40;;;9.80;99.90;;;;;;4846795;29;20188;-83
2024/03/26 10:49:13;;;;;;;10.63;3.95;;;9.70;99.90;;;;;;4863341;29;20309;-83
2024/03/26 10:51:40;;;;;;;5.68;3.72;;;9.80;99.90;;;;;;4846643;29;20213;-83
2024/03/26 10:54:07;;;;;;;5.60;3.50;;;9.90;99.90;;;;;;4862659;29;20239;-84
2024/03/26 10:56:33;;;;;;;5.50;3.55;;;9.90;99.90;;;;;;4846517;29;20181;-85
2024/03/26 10:59:00;;;;;;;4.75;3.60;;;9.90;99.90;;;;;;4860740;29;20640;-84
2024/03/26 11:01:28;;;;;;;7.40;3.88;;;9.90;99.90;;;;;;4862934;29;20216;-83
2024/03/26 11:03:57;;;;;;;5.22;3.97;;;9.90;99.90;;;;;;4862846;29;20187;-83
2024/03/26 11:06:24;;;;;;;6.70;3.88;;;9.90;99.90;;;;;;4846764;29;20180;-83
2024/03/26 11:09:07;;;;;;;5.65;3.65;;;9.80;99.90;;;;;;4858655;29;20190;-82
2024/03/26 11:11:34;;;;;;;4.22;3.53;;;9.70;99.90;;;;;;4844993;29;20509;-84
2024/03/26 11:14:03;;;;;;;5.93;4.18;;;9.70;99.90;;;;;;4859075;29;20216;-84
2024/03/26 11:16:33;;;;;;;6.67;4.03;;;9.60;99.90;;;;;;4850756;29;20275;-80
2024/03/26 11:19:18;;;;;;;5.78;3.72;;;9.60;99.90;;;;;;4845109;29;20592;-82
2024/03/26 11:21:44;;;;;;;5.95;3.70;;;9.70;99.90;;;;;;4863324;29;20207;-83
2024/03/26 11:24:24;;;;;;;6.43;4.20;;;9.80;99.90;;;;;;4862568;29;20181;-82
2024/03/26 11:26:51;;;;;;;5.03;3.60;;;9.90;99.90;;;;;;4845694;29;20228;-83
2024/03/26 11:29:18;;;;;;;5.55;4.10;;;9.80;99.90;;;;;;4839950;29;20185;-81
2024/03/26 11:31:47;;;;;;;5.93;3.97;;;9.90;99.90;;;;;;4856548;29;20188;-81
2024/03/26 11:34:14;;;;;;;5.22;3.83;;;10.00;99.90;;;;;;4830327;29;20197;-82
2024/03/26 11:36:41;;;;;;;5.95;4.00;;;10.00;99.90;;;;;;4842990;29;20185;-82
2024/03/26 11:39:09;;;;;;;6.18;4.13;;;10.00;99.90;;;;;;4843906;29;20562;-81
2024/03/26 11:41:35;;;;;;;5.05;4.07;;;10.10;99.90;;;;;;4847473;29;20200;-81
2024/03/26 11:44:02;;;;;;;6.18;4.03;;;10.10;99.90;;;;;;4861633;29;20185;-82
2024/03/26 11:46:29;;;;;;;6.82;4.43;;;10.20;99.90;;;;;;4862085;29;20561;-83
2024/03/26 11:49:00;;;;;;;6.95;4.50;;;10.20;99.90;;;;;;4862269;29;20268;-81
2024/03/26 11:51:27;;;;;;;6.25;4.38;;;10.30;99.90;;;;;;4844959;29;20181;-81
2024/03/26 11:53:55;;;;;;;6.03;4.50;;;10.30;99.90;;;;;;4840395;29;20192;-87
2024/03/26 11:56:21;;;;;;;6.72;4.10;;;10.30;99.90;;;;;;4846089;29;20200;-82
2024/03/26 11:58:48;;;;;;;6.63;4.45;;;10.40;99.90;;;;;;4837132;29;20185;-82
2024/03/26 12:01:15;;;;;;;5.30;4.03;;;10.40;99.90;;;;;;4843541;29;20224;-79
2024/03/26 12:03:55;;;;;;;5.85;4.55;;;10.50;99.90;;;;;;4827435;29;20218;-82
2024/03/26 12:06:23;;;;;;;5.80;4.38;;;10.50;99.90;;;;;;4825816;29;20193;-82
2024/03/26 12:08:53;;;;;;;6.00;4.50;;;10.60;99.90;;;;;;4857397;29;20177;-82
2024/03/26 12:11:20;;;;;;;6.57;4.00;;;10.60;99.90;;;;;;4856767;29;20522;-82
2024/03/26 12:13:46;;;;;;;6.20;4.13;;;10.70;99.90;;;;;;4843518;29;20177;-81
2024/03/26 12:16:39;;;;;;;6.95;4.53;;;10.70;99.90;;;;;;4842565;29;20201;-82
2024/03/26 12:19:05;;;;;;;6.03;4.53;;;10.80;99.90;;;;;;4822245;29;20190;-84
2024/03/26 12:21:31;;;;;;;4.80;4.30;;;10.80;99.90;;;;;;4824212;29;20619;-83
2024/03/26 12:23:57;;;;;;;5.38;4.47;;;10.80;99.90;;;;;;4824552;29;20188;-83
2024/03/26 12:26:23;;;;;;;6.43;4.18;;;10.70;99.90;;;;;;4861649;29;20285;-84
2024/03/26 12:28:50;;;;;;;6.18;4.25;;;10.70;99.90;;;;;;4860916;29;20667;-83
2024/03/26 12:31:17;;;;;;;6.13;4.57;;;10.70;99.90;;;;;;4847484;29;20251;-83
2024/03/26 12:33:43;;;;;;;6.38;4.70;;;10.70;99.90;;;;;;4863736;29;20775;-83
2024/03/26 12:36:09;;;;;;;7.07;4.93;;;10.70;99.90;;;;;;4845140;29;20191;-84
2024/03/26 12:38:37;;;;;;;6.00;4.63;;;10.70;99.90;;;;;;4861943;29;20180;-85
2024/03/26 12:41:07;;;;;;;8.30;5.28;;;10.80;99.90;;;;;;4846470;29;20656;-83
2024/03/26 12:43:35;;;;;;;6.32;4.65;;;10.70;99.90;;;;;;4852809;29;20184;-82
2024/03/26 12:46:02;;;;;;;6.22;5.07;;;10.80;99.90;;;;;;4845928;29;20192;-82
2024/03/26 12:48:28;;;;;;;6.95;5.18;;;10.80;99.90;;;;;;4880543;29;20157;-85
2024/03/26 12:50:54;;;;;;;6.45;4.82;;;10.80;99.90;;;;;;4880340;29;20204;-85
2024/03/26 12:53:20;;;;;;;5.00;4.22;;;10.80;99.90;;;;;;4880302;29;20184;-85